createdAt,value
2023-09-10T00:00:29.147Z,20.00
2023-09-10T00:01:34.606Z,20.00
2023-09-10T00:02:37.446Z,20.00
2023-09-10T00:03:40.579Z,20.00
2023-09-10T00:04:42.534Z,19.90
2023-09-10T00:05:44.625Z,19.90
2023-09-10T00:06:47.515Z,19.80
2023-09-10T00:07:49.543Z,19.80
2023-09-10T00:08:52.543Z,19.70
2023-09-10T00:09:54.618Z,19.70
2023-09-10T00:10:57.727Z,19.70
2023-09-10T00:11:59.858Z,19.70
2023-09-10T00:13:04.875Z,19.70
2023-09-10T00:14:06.930Z,19.70
2023-09-10T00:15:10.286Z,19.70
2023-09-10T00:16:12.185Z,19.70
2023-09-10T00:17:15.125Z,19.60
2023-09-10T00:18:17.092Z,19.60
2023-09-10T00:19:20.246Z,19.60
2023-09-10T00:20:22.286Z,19.60
2023-09-10T00:21:25.267Z,19.60
2023-09-10T00:22:27.233Z,19.60
2023-09-10T00:23:30.187Z,19.50
2023-09-10T00:24:32.215Z,19.50
2023-09-10T00:25:35.961Z,19.50
2023-09-10T00:26:37.919Z,19.50
2023-09-10T00:27:40.809Z,19.40
2023-09-10T00:28:45.448Z,19.40
2023-09-10T00:29:48.413Z,19.40
2023-09-10T00:30:52.499Z,19.40
2023-09-10T00:31:55.463Z,19.40
2023-09-10T00:32:57.532Z,19.40
2023-09-10T00:34:00.750Z,19.40
2023-09-10T00:35:02.670Z,19.40
2023-09-10T00:36:05.917Z,19.40
2023-09-10T00:37:08.627Z,19.40
2023-09-10T00:38:11.600Z,19.40
2023-09-10T00:39:13.530Z,19.40
2023-09-10T00:40:16.495Z,19.40
2023-09-10T00:41:18.409Z,19.30
2023-09-10T00:42:21.371Z,19.30
2023-09-10T00:43:23.774Z,19.30
2023-09-10T00:44:27.205Z,19.30
2023-09-10T00:45:30.485Z,19.20
2023-09-10T00:46:32.897Z,19.20
2023-09-10T00:47:37.080Z,19.20
2023-09-10T00:48:39.367Z,19.10
2023-09-10T00:49:42.972Z,19.10
2023-09-10T00:50:45.334Z,19.10
2023-09-10T00:51:49.013Z,19.00
2023-09-10T00:52:53.726Z,19.10
2023-09-10T00:53:56.757Z,19.10
2023-09-10T00:54:58.787Z,19.10
2023-09-10T00:56:01.880Z,19.10
2023-09-10T00:57:04.430Z,19.10
2023-09-10T00:58:07.344Z,19.10
2023-09-10T00:59:09.836Z,19.10
2023-09-10T01:00:14.449Z,19.10
2023-09-10T01:01:18.925Z,19.10
2023-09-10T01:02:21.326Z,19.10
2023-09-10T01:03:25.920Z,19.00
2023-09-10T01:04:27.891Z,19.00
2023-09-10T01:05:33.558Z,19.00
2023-09-10T01:06:35.824Z,19.00
2023-09-10T01:07:38.341Z,19.00
2023-09-10T01:08:41.697Z,19.00
2023-09-10T01:09:43.911Z,19.00
2023-09-10T01:10:51.159Z,19.00
2023-09-10T01:11:57.173Z,19.00
2023-09-10T01:13:03.225Z,18.90
2023-09-10T01:14:08.340Z,19.00
2023-09-10T01:15:14.891Z,19.00
2023-09-10T01:16:19.885Z,18.90
2023-09-10T01:17:24.986Z,19.00
2023-09-10T01:18:30.286Z,18.90
2023-09-10T01:19:43.166Z,18.90
2023-09-10T01:20:54.041Z,18.90
2023-09-10T01:21:58.204Z,18.90
2023-09-10T01:23:05.233Z,18.90
2023-09-10T01:24:12.857Z,18.90
2023-09-10T01:25:17.677Z,18.90
2023-09-10T01:26:20.082Z,18.80
2023-09-10T01:27:23.042Z,18.80
2023-09-10T01:28:25.010Z,18.80
2023-09-10T01:29:27.115Z,18.80
2023-09-10T01:30:30.118Z,18.70
2023-09-10T01:31:35.369Z,18.70
2023-09-10T01:32:40.571Z,18.70
2023-09-10T01:33:52.697Z,18.70
2023-09-10T01:35:00.748Z,18.70
2023-09-10T01:36:04.442Z,18.70
2023-09-10T01:37:10.302Z,18.70
2023-09-10T01:38:16.638Z,18.70
2023-09-10T01:39:25.541Z,18.70
2023-09-10T01:40:32.160Z,18.70
2023-09-10T01:41:36.208Z,18.70
2023-09-10T01:42:38.662Z,18.70
2023-09-10T01:43:42.429Z,18.70
2023-09-10T01:44:44.634Z,18.70
2023-09-10T01:45:49.154Z,18.80
2023-09-10T01:46:51.957Z,18.80
2023-09-10T01:47:55.123Z,18.80
2023-09-10T01:48:57.379Z,18.80
2023-09-10T01:50:00.381Z,18.80
2023-09-10T01:51:02.383Z,18.80
2023-09-10T01:52:05.626Z,18.70
2023-09-10T01:53:07.735Z,18.80
2023-09-10T01:54:10.632Z,18.80
2023-09-10T01:55:12.567Z,18.80
2023-09-10T01:56:17.024Z,18.80
2023-09-10T01:57:19.336Z,18.80
2023-09-10T01:58:22.240Z,18.80
2023-09-10T01:59:24.154Z,18.80
2023-09-10T02:00:27.104Z,18.80
2023-09-10T02:01:29.178Z,18.80
2023-09-10T02:02:32.374Z,18.80
2023-09-10T02:03:34.714Z,18.80
2023-09-10T02:04:36.824Z,18.80
2023-09-10T02:05:39.778Z,18.80
2023-09-10T02:06:41.833Z,18.80
2023-09-10T02:07:44.814Z,18.70
2023-09-10T02:08:47.067Z,18.70
2023-09-10T02:09:49.959Z,18.70
2023-09-10T02:10:51.928Z,18.70
2023-09-10T02:11:56.170Z,18.60
2023-09-10T02:12:58.115Z,18.60
2023-09-10T02:14:01.072Z,18.60
2023-09-10T02:15:04.896Z,18.60
2023-09-10T02:16:08.234Z,18.60
2023-09-10T02:17:10.295Z,18.60
2023-09-10T02:18:13.262Z,18.60
2023-09-10T02:19:15.195Z,18.70
2023-09-10T02:20:18.210Z,18.70
2023-09-10T02:21:20.540Z,18.60
2023-09-10T02:22:23.423Z,18.70
2023-09-10T02:23:25.476Z,18.60
2023-09-10T02:24:28.466Z,18.50
2023-09-10T02:25:31.742Z,18.50
2023-09-10T02:26:35.780Z,18.50
2023-09-10T02:27:39.121Z,18.50
2023-09-10T02:28:42.245Z,18.50
2023-09-10T02:29:44.453Z,18.40
2023-09-10T02:30:47.316Z,18.40
2023-09-10T02:31:49.427Z,18.40
2023-09-10T02:32:52.639Z,18.40
2023-09-10T02:34:01.257Z,18.30
2023-09-10T02:35:04.884Z,18.30
2023-09-10T02:36:08.153Z,18.30
2023-09-10T02:37:11.087Z,18.30
2023-09-10T02:38:13.125Z,18.30
2023-09-10T02:39:16.342Z,18.30
2023-09-10T02:40:18.464Z,18.20
2023-09-10T02:41:21.599Z,18.20
2023-09-10T02:42:23.560Z,18.20
2023-09-10T02:43:27.837Z,18.20
2023-09-10T02:44:29.867Z,18.20
2023-09-10T02:45:33.021Z,18.30
2023-09-10T02:46:35.709Z,18.30
2023-09-10T02:47:38.668Z,18.20
2023-09-10T02:48:40.936Z,18.20
2023-09-10T02:49:44.052Z,18.20
2023-09-10T02:50:46.159Z,18.20
2023-09-10T02:51:49.683Z,18.20
2023-09-10T02:52:51.762Z,18.20
2023-09-10T02:53:54.671Z,18.10
2023-09-10T02:54:56.658Z,18.10
2023-09-10T02:56:02.719Z,18.00
2023-09-10T02:57:04.938Z,18.10
2023-09-10T02:58:07.403Z,18.00
2023-09-10T02:59:19.093Z,18.00
2023-09-10T03:00:26.571Z,18.00
2023-09-10T03:01:29.716Z,18.00
2023-09-10T03:02:31.827Z,17.90
2023-09-10T03:03:35.713Z,17.90
2023-09-10T03:04:37.996Z,17.90
2023-09-10T03:05:40.926Z,17.90
2023-09-10T03:06:43.184Z,18.00
2023-09-10T03:07:46.309Z,17.90
2023-09-10T03:08:48.841Z,17.90
2023-09-10T03:09:52.420Z,17.90
2023-09-10T03:10:54.401Z,17.90
2023-09-10T03:11:59.748Z,17.90
2023-09-10T03:13:01.901Z,17.90
2023-09-10T03:14:05.014Z,17.90
2023-09-10T03:15:09.192Z,17.90
2023-09-10T03:16:12.129Z,17.80
2023-09-10T03:17:14.283Z,17.80
2023-09-10T03:18:17.736Z,17.80
2023-09-10T03:19:19.823Z,17.80
2023-09-10T03:20:22.745Z,17.80
2023-09-10T03:21:25.147Z,17.80
2023-09-10T03:22:28.528Z,17.70
2023-09-10T03:23:30.498Z,17.70
2023-09-10T03:24:35.312Z,17.70
2023-09-10T03:25:37.931Z,17.70
2023-09-10T03:26:41.107Z,17.70
2023-09-10T03:27:43.136Z,17.60
2023-09-10T03:28:46.102Z,17.60
2023-09-10T03:29:48.260Z,17.60
2023-09-10T03:30:57.511Z,17.60
2023-09-10T03:31:59.723Z,17.60
2023-09-10T03:33:02.754Z,17.60
2023-09-10T03:34:04.944Z,17.60
2023-09-10T03:35:09.089Z,17.60
2023-09-10T03:36:12.153Z,17.60
2023-09-10T03:37:14.485Z,17.60
2023-09-10T03:38:17.441Z,17.60
2023-09-10T03:39:19.611Z,17.60
2023-09-10T03:40:22.688Z,17.60
2023-09-10T03:41:24.647Z,17.60
2023-09-10T03:42:27.722Z,17.60
2023-09-10T03:43:29.705Z,17.60
2023-09-10T03:44:33.465Z,17.60
2023-09-10T03:45:35.747Z,17.60
2023-09-10T03:46:40.227Z,17.70
2023-09-10T03:47:42.326Z,17.60
2023-09-10T03:48:45.647Z,17.70
2023-09-10T03:49:47.693Z,17.70
2023-09-10T03:50:50.893Z,17.70
2023-09-10T03:51:52.948Z,17.70
2023-09-10T03:52:55.926Z,17.70
2023-09-10T03:53:57.903Z,17.80
2023-09-10T03:55:00.839Z,17.80
2023-09-10T03:56:02.855Z,17.80
2023-09-10T03:57:07.674Z,17.90
2023-09-10T03:58:09.704Z,17.90
2023-09-10T03:59:12.697Z,17.90
2023-09-10T04:00:14.723Z,17.90
2023-09-10T04:01:18.189Z,17.90
2023-09-10T04:02:21.813Z,17.90
2023-09-10T04:03:27.039Z,17.90
2023-09-10T04:04:29.995Z,17.90
2023-09-10T04:05:32.968Z,17.90
2023-09-10T04:06:34.977Z,17.90
2023-09-10T04:07:38.107Z,17.90
2023-09-10T04:08:40.390Z,17.90
2023-09-10T04:09:43.785Z,17.90
2023-09-10T04:10:45.768Z,17.90
2023-09-10T04:11:49.032Z,17.90
2023-09-10T04:12:52.105Z,17.90
2023-09-10T04:13:55.136Z,17.90
2023-09-10T04:14:57.123Z,17.90
2023-09-10T04:15:59.050Z,17.90
2023-09-10T04:17:02.069Z,17.90
2023-09-10T04:18:06.527Z,17.90
2023-09-10T04:19:09.822Z,17.90
2023-09-10T04:20:12.240Z,17.90
2023-09-10T04:21:15.241Z,17.90
2023-09-10T04:22:17.241Z,17.90
2023-09-10T04:23:20.204Z,17.80
2023-09-10T04:24:22.191Z,17.80
2023-09-10T04:25:25.162Z,17.80
2023-09-10T04:26:27.447Z,17.80
2023-09-10T04:27:29.522Z,17.80
2023-09-10T04:28:32.458Z,17.80
2023-09-10T04:29:34.399Z,17.90
2023-09-10T04:30:37.839Z,17.80
2023-09-10T04:31:41.158Z,17.80
2023-09-10T04:32:44.310Z,17.80
2023-09-10T04:33:47.639Z,17.80
2023-09-10T04:34:50.693Z,17.80
2023-09-10T04:35:54.672Z,17.80
2023-09-10T04:36:58.282Z,17.80
2023-09-10T04:38:00.570Z,17.80
2023-09-10T04:39:09.227Z,17.70
2023-09-10T04:40:12.659Z,17.70
2023-09-10T04:41:15.805Z,17.70
2023-09-10T04:42:17.943Z,17.70
2023-09-10T04:43:20.871Z,17.70
2023-09-10T04:44:23.404Z,17.70
2023-09-10T04:45:26.372Z,17.70
2023-09-10T04:46:28.461Z,17.70
2023-09-10T04:47:31.503Z,17.70
2023-09-10T04:48:33.617Z,17.70
2023-09-10T04:49:38.666Z,17.70
2023-09-10T04:50:40.688Z,17.70
2023-09-10T04:51:44.011Z,17.70
2023-09-10T04:52:46.016Z,17.60
2023-09-10T04:53:48.960Z,17.60
2023-09-10T04:54:50.933Z,17.60
2023-09-10T04:55:54.925Z,17.70
2023-09-10T04:57:00.487Z,17.60
2023-09-10T04:58:05.665Z,17.60
2023-09-10T04:59:07.795Z,17.60
2023-09-10T05:00:11.452Z,17.60
2023-09-10T05:01:14.775Z,17.60
2023-09-10T05:02:17.868Z,17.60
2023-09-10T05:03:22.179Z,17.60
2023-09-10T05:04:24.408Z,17.60
2023-09-10T05:05:28.795Z,17.70
2023-09-10T05:06:30.722Z,17.70
2023-09-10T05:07:33.655Z,17.70
2023-09-10T05:08:35.828Z,17.70
2023-09-10T05:09:38.767Z,17.70
2023-09-10T05:10:40.817Z,17.70
2023-09-10T05:11:43.703Z,17.70
2023-09-10T05:12:45.741Z,17.70
2023-09-10T05:13:48.676Z,17.80
2023-09-10T05:14:50.693Z,17.80
2023-09-10T05:15:55.942Z,17.70
2023-09-10T05:16:58.172Z,17.80
2023-09-10T05:18:01.302Z,17.80
2023-09-10T05:19:03.379Z,17.80
2023-09-10T05:20:06.983Z,17.80
2023-09-10T05:21:10.332Z,17.80
2023-09-10T05:22:13.211Z,17.80
2023-09-10T05:23:15.226Z,17.80
2023-09-10T05:24:18.164Z,17.80
2023-09-10T05:25:20.241Z,17.80
2023-09-10T05:26:23.972Z,17.80
2023-09-10T05:27:26.028Z,17.80
2023-09-10T05:28:28.898Z,17.80
2023-09-10T05:29:30.996Z,17.90
2023-09-10T05:30:34.092Z,17.90
2023-09-10T05:31:36.085Z,17.90
2023-09-10T05:32:39.044Z,17.90
2023-09-10T05:33:41.103Z,18.00
2023-09-10T05:34:44.650Z,18.00
2023-09-10T05:35:54.090Z,18.00
2023-09-10T05:36:58.312Z,18.00
2023-09-10T05:38:00.373Z,18.10
2023-09-10T05:39:03.438Z,18.10
2023-09-10T05:40:06.115Z,18.10
2023-09-10T05:41:10.197Z,18.20
2023-09-10T05:42:12.227Z,18.20
2023-09-10T05:43:15.187Z,18.30
2023-09-10T05:44:17.499Z,18.30
2023-09-10T05:45:20.914Z,18.40
2023-09-10T05:46:22.983Z,18.40
2023-09-10T05:47:28.104Z,18.50
2023-09-10T05:48:30.096Z,18.60
2023-09-10T05:49:34.449Z,18.70
2023-09-10T05:50:36.512Z,18.90
2023-09-10T05:51:39.454Z,19.10
2023-09-10T05:52:42.792Z,19.40
2023-09-10T05:53:46.080Z,19.70
2023-09-10T05:54:48.212Z,19.90
2023-09-10T05:55:51.153Z,20.10
2023-09-10T05:56:53.238Z,20.30
2023-09-10T05:57:56.177Z,20.60
2023-09-10T05:58:58.346Z,21.00
2023-09-10T06:00:01.295Z,21.10
2023-09-10T06:01:04.524Z,21.20
2023-09-10T06:02:07.527Z,21.30
2023-09-10T06:03:10.908Z,21.40
2023-09-10T06:04:14.104Z,21.70
2023-09-10T06:05:16.880Z,21.80
2023-09-10T06:06:20.286Z,22.00
2023-09-10T06:07:22.252Z,22.10
2023-09-10T06:08:25.660Z,22.20
2023-09-10T06:09:28.708Z,22.60
2023-09-10T06:10:30.672Z,22.90
2023-09-10T06:11:33.620Z,23.00
2023-09-10T06:12:35.971Z,23.10
2023-09-10T06:13:39.164Z,23.20
2023-09-10T06:14:41.117Z,23.40
2023-09-10T06:15:44.289Z,23.50
2023-09-10T06:16:46.270Z,23.90
2023-09-10T06:17:55.271Z,24.20
2023-09-10T06:18:57.216Z,24.40
2023-09-10T06:20:00.650Z,25.00
2023-09-10T06:21:03.211Z,25.30
2023-09-10T06:22:05.291Z,25.50
2023-09-10T06:23:08.365Z,25.60
2023-09-10T06:24:11.909Z,25.80
2023-09-10T06:25:15.038Z,26.00
2023-09-10T06:26:17.087Z,26.10
2023-09-10T06:27:20.037Z,26.30
2023-09-10T06:28:25.193Z,26.40
2023-09-10T06:29:28.249Z,26.70
2023-09-10T06:30:30.267Z,27.00
2023-09-10T06:31:33.848Z,27.40
2023-09-10T06:32:36.035Z,27.60
2023-09-10T06:33:39.039Z,27.80
2023-09-10T06:34:41.072Z,27.80
2023-09-10T06:35:44.554Z,28.00
2023-09-10T06:36:47.019Z,28.30
2023-09-10T06:37:50.619Z,28.30
2023-09-10T06:38:52.812Z,28.20
2023-09-10T06:39:57.233Z,28.40
2023-09-10T06:40:59.164Z,28.60
2023-09-10T06:42:02.160Z,28.80
2023-09-10T06:43:11.673Z,29.10
2023-09-10T06:44:26.560Z,29.30
2023-09-10T06:45:28.631Z,29.00
2023-09-10T06:46:31.781Z,29.00
2023-09-10T06:47:33.767Z,29.30
2023-09-10T06:48:36.680Z,29.50
2023-09-10T06:49:41.487Z,29.60
2023-09-10T06:50:46.338Z,29.90
2023-09-10T06:51:48.432Z,30.40
2023-09-10T06:52:51.326Z,30.80
2023-09-10T06:53:53.735Z,31.10
2023-09-10T06:54:58.239Z,30.90
2023-09-10T06:56:00.251Z,30.80
2023-09-10T06:57:03.178Z,30.80
2023-09-10T06:58:05.109Z,30.80
2023-09-10T06:59:08.174Z,30.90
2023-09-10T07:00:10.626Z,31.00
2023-09-10T07:01:16.736Z,31.10
2023-09-10T07:02:18.741Z,31.20
2023-09-10T07:03:21.634Z,31.40
2023-09-10T07:04:25.006Z,31.60
2023-09-10T07:05:27.961Z,31.70
2023-09-10T07:06:30.073Z,32.00
2023-09-10T07:07:32.973Z,32.30
2023-09-10T07:08:36.159Z,32.50
2023-09-10T07:09:38.180Z,32.80
2023-09-10T07:10:42.531Z,33.10
2023-09-10T07:11:44.523Z,33.10
2023-09-10T07:12:47.550Z,33.30
2023-09-10T07:13:49.477Z,33.10
2023-09-10T07:14:52.372Z,33.20
2023-09-10T07:15:54.341Z,33.30
2023-09-10T07:16:57.295Z,33.50
2023-09-10T07:17:59.414Z,33.60
2023-09-10T07:19:01.420Z,33.70
2023-09-10T07:20:04.792Z,34.00
2023-09-10T07:21:06.708Z,34.50
2023-09-10T07:22:09.589Z,35.20
2023-09-10T07:23:11.521Z,35.70
2023-09-10T07:24:14.823Z,36.20
2023-09-10T07:25:17.791Z,36.60
2023-09-10T07:26:21.161Z,37.10
2023-09-10T07:27:24.198Z,37.40
2023-09-10T07:28:26.138Z,37.60
2023-09-10T07:29:29.187Z,37.50
2023-09-10T07:30:31.350Z,37.60
2023-09-10T07:31:34.403Z,37.80
2023-09-10T07:32:36.482Z,37.80
2023-09-10T07:33:39.381Z,38.00
2023-09-10T07:34:41.302Z,38.00
2023-09-10T07:35:45.364Z,38.10
2023-09-10T07:36:47.652Z,38.50
2023-09-10T07:37:52.680Z,38.80
2023-09-10T07:38:56.099Z,39.00
2023-09-10T07:39:59.024Z,39.30
2023-09-10T07:41:01.362Z,39.40
2023-09-10T07:42:06.315Z,39.50
2023-09-10T07:43:08.322Z,39.50
2023-09-10T07:44:11.302Z,39.60
2023-09-10T07:45:15.211Z,39.70
2023-09-10T07:46:18.129Z,39.90
2023-09-10T07:47:20.305Z,40.10
2023-09-10T07:48:23.221Z,40.40
2023-09-10T07:49:25.183Z,40.40
2023-09-10T07:50:29.816Z,40.40
2023-09-10T07:51:31.820Z,40.50
2023-09-10T07:52:34.906Z,40.70
2023-09-10T07:53:36.831Z,40.80
2023-09-10T07:54:39.749Z,41.00
2023-09-10T07:55:41.835Z,41.20
2023-09-10T07:56:46.952Z,41.30
2023-09-10T07:57:50.277Z,41.30
2023-09-10T07:58:53.406Z,41.20
2023-09-10T07:59:55.351Z,41.20
2023-09-10T08:00:58.619Z,41.30
2023-09-10T08:02:02.521Z,41.20
2023-09-10T08:03:07.657Z,41.20
2023-09-10T08:04:10.030Z,40.80
2023-09-10T08:05:13.026Z,40.50
2023-09-10T08:06:16.260Z,40.30
2023-09-10T08:07:19.244Z,40.20
2023-09-10T08:08:21.328Z,40.10
2023-09-10T08:09:24.314Z,40.00
2023-09-10T08:10:26.289Z,39.90
2023-09-10T08:11:29.231Z,40.00
2023-09-10T08:12:31.229Z,40.10
2023-09-10T08:13:34.506Z,40.20
2023-09-10T08:14:39.968Z,40.30
2023-09-10T08:15:42.220Z,40.30
2023-09-10T08:16:45.890Z,40.10
2023-09-10T08:17:48.857Z,40.00
2023-09-10T08:18:51.856Z,40.00
2023-09-10T08:19:53.850Z,39.90
2023-09-10T08:20:56.783Z,39.80
2023-09-10T08:21:58.978Z,39.60
2023-09-10T08:23:02.021Z,39.20
2023-09-10T08:24:05.434Z,39.40
2023-09-10T08:25:09.476Z,39.40
2023-09-10T08:26:12.466Z,39.40
2023-09-10T08:27:15.446Z,39.20
2023-09-10T08:28:17.384Z,38.70
2023-09-10T08:29:21.770Z,38.90
2023-09-10T08:30:23.831Z,39.10
2023-09-10T08:31:26.766Z,39.30
2023-09-10T08:32:29.169Z,39.30
2023-09-10T08:33:32.177Z,39.40
2023-09-10T08:34:34.150Z,39.30
2023-09-10T08:35:47.255Z,39.30
2023-09-10T08:36:49.182Z,39.40
2023-09-10T08:37:52.263Z,39.40
2023-09-10T08:38:55.698Z,38.50
2023-09-10T08:39:58.601Z,38.50
2023-09-10T08:41:04.730Z,38.40
2023-09-10T08:42:10.039Z,37.80
2023-09-10T08:43:12.712Z,37.80
2023-09-10T08:44:18.762Z,38.00
2023-09-10T08:45:23.135Z,37.90
2023-09-10T08:46:31.338Z,38.00
2023-09-10T08:47:37.739Z,37.80
2023-09-10T08:48:42.368Z,37.80
2023-09-10T08:49:45.133Z,37.80
2023-09-10T08:50:48.370Z,37.80
2023-09-10T08:51:50.514Z,37.80
2023-09-10T08:52:54.484Z,37.80
2023-09-10T08:53:57.559Z,37.80
2023-09-10T08:55:00.699Z,37.80
2023-09-10T08:56:03.465Z,37.70
2023-09-10T08:57:06.962Z,37.70
2023-09-10T08:58:10.257Z,37.60
2023-09-10T08:59:14.598Z,37.40
2023-09-10T09:00:16.809Z,37.30
2023-09-10T09:01:21.693Z,37.10
2023-09-10T09:08:52.338Z,37.10
2023-09-10T09:09:57.505Z,37.20
2023-09-10T09:11:03.931Z,37.30
2023-09-10T09:12:07.197Z,37.30
2023-09-10T09:13:11.186Z,37.40
2023-09-10T09:14:14.190Z,37.50
2023-09-10T09:15:17.213Z,37.30
2023-09-10T09:16:20.700Z,37.30
2023-09-10T09:17:24.542Z,37.00
2023-09-10T09:18:28.409Z,36.80
2023-09-10T09:19:32.323Z,36.60
2023-09-10T09:20:35.596Z,36.30
2023-09-10T09:21:41.081Z,36.40
2023-09-10T09:22:44.786Z,36.50
2023-09-10T09:23:48.527Z,36.40
2023-09-10T09:24:50.730Z,36.70
2023-09-10T09:25:53.804Z,36.70
2023-09-10T09:26:55.918Z,36.30
2023-09-10T09:27:59.042Z,36.30
2023-09-10T09:29:01.480Z,36.30
2023-09-10T09:30:06.932Z,36.00
2023-09-10T09:31:11.086Z,36.00
2023-09-10T09:32:15.450Z,35.90
2023-09-10T09:33:18.356Z,35.90
2023-09-10T09:34:20.610Z,35.90
2023-09-10T09:35:23.479Z,35.70
2023-09-10T09:36:26.672Z,35.60
2023-09-10T09:37:29.553Z,35.70
2023-09-10T09:38:31.653Z,35.70
2023-09-10T09:39:34.646Z,35.60
2023-09-10T09:40:37.228Z,35.50
2023-09-10T09:41:40.106Z,35.30
2023-09-10T09:42:41.983Z,35.30
2023-09-10T09:43:45.418Z,35.40
2023-09-10T09:44:47.329Z,35.50
2023-09-10T09:45:49.298Z,35.40
2023-09-10T09:46:52.476Z,35.50
2023-09-10T09:47:56.053Z,35.40
2023-09-10T09:48:59.035Z,35.30
2023-09-10T09:50:00.975Z,35.10
2023-09-10T09:51:04.454Z,35.00
2023-09-10T09:52:06.661Z,34.90
2023-09-10T09:53:09.895Z,35.00
2023-09-10T09:54:11.867Z,34.90
2023-09-10T09:55:14.744Z,34.80
2023-09-10T09:56:17.651Z,34.80
2023-09-10T09:57:20.622Z,34.80
2023-09-10T09:58:22.749Z,34.90
2023-09-10T09:59:25.670Z,34.90
2023-09-10T10:00:28.112Z,35.10
2023-09-10T10:01:31.185Z,35.20
2023-09-10T10:02:33.548Z,35.30
2023-09-10T10:03:38.605Z,35.50
2023-09-10T10:04:40.676Z,35.60
2023-09-10T10:05:45.023Z,35.70
2023-09-10T10:06:49.649Z,35.70
2023-09-10T10:07:53.711Z,35.80
2023-09-10T10:08:55.779Z,35.90
2023-09-10T10:09:59.512Z,36.10
2023-09-10T10:11:02.431Z,35.70
2023-09-10T10:12:08.470Z,35.70
2023-09-10T10:13:11.559Z,35.70
2023-09-10T10:14:14.162Z,35.70
2023-09-10T10:15:18.296Z,35.70
2023-09-10T10:16:21.085Z,35.70
2023-09-10T10:17:24.124Z,35.50
2023-09-10T10:18:31.361Z,35.10
2023-09-10T10:19:35.142Z,35.00
2023-09-10T10:20:39.075Z,34.80
2023-09-10T10:21:41.590Z,34.90
2023-09-10T10:22:44.934Z,34.90
2023-09-10T10:23:47.463Z,35.00
2023-09-10T10:24:51.355Z,35.00
2023-09-10T10:25:54.148Z,35.00
2023-09-10T10:26:57.236Z,35.20
2023-09-10T10:28:00.212Z,35.30
2023-09-10T10:29:03.096Z,35.30
2023-09-10T10:30:07.093Z,35.40
2023-09-10T10:31:12.447Z,35.30
2023-09-10T10:32:18.769Z,35.10
2023-09-10T10:33:22.256Z,34.80
2023-09-10T10:34:25.867Z,34.70
2023-09-10T10:35:30.947Z,34.70
2023-09-10T10:36:38.338Z,34.70
2023-09-10T10:37:45.580Z,34.70
2023-09-10T10:38:48.738Z,34.70
2023-09-10T10:39:54.055Z,34.80
2023-09-10T10:40:56.243Z,34.80
2023-09-10T10:42:00.179Z,34.70
2023-09-10T10:43:04.490Z,34.80
2023-09-10T10:44:13.170Z,34.60
2023-09-10T10:45:17.197Z,34.50
2023-09-10T10:46:21.509Z,34.50
2023-09-10T10:47:24.552Z,34.60
2023-09-10T10:48:28.205Z,34.70
2023-09-10T10:49:30.524Z,34.70
2023-09-10T10:50:37.428Z,34.90
2023-09-10T10:51:54.935Z,35.00
2023-09-10T10:53:00.767Z,35.10
2023-09-10T10:54:13.316Z,35.40
2023-09-10T10:55:16.616Z,35.30
2023-09-10T10:56:18.941Z,35.40
2023-09-10T10:57:22.550Z,35.30
2023-09-10T10:58:25.021Z,35.20
2023-09-10T10:59:27.996Z,35.10
2023-09-10T11:00:30.099Z,35.00
2023-09-10T11:01:33.030Z,35.00
2023-09-10T11:02:35.469Z,35.00
2023-09-10T11:03:38.818Z,34.90
2023-09-10T11:04:54.033Z,34.80
2023-09-10T11:06:09.140Z,34.70
2023-09-10T11:07:17.929Z,34.70
2023-09-10T11:08:26.860Z,34.70
2023-09-10T11:09:37.964Z,34.60
2023-09-10T11:10:42.030Z,34.60
2023-09-10T11:11:47.287Z,34.60
2023-09-10T11:13:05.878Z,34.60
2023-09-10T11:14:09.564Z,34.60
2023-09-10T11:15:13.699Z,34.60
2023-09-10T11:16:16.779Z,34.60
2023-09-10T11:17:23.542Z,34.60
2023-09-10T11:18:42.767Z,34.40
2023-09-10T11:19:47.205Z,34.40
2023-09-10T11:20:50.074Z,34.40
2023-09-10T11:22:04.716Z,34.40
2023-09-10T11:23:07.890Z,34.40
2023-09-10T11:24:26.885Z,34.50
2023-09-10T11:25:28.767Z,34.50
2023-09-10T11:26:34.631Z,34.70
2023-09-10T11:27:36.608Z,34.80
2023-09-10T11:28:40.954Z,34.70
2023-09-10T11:29:43.085Z,34.60
2023-09-10T11:30:45.968Z,34.40
2023-09-10T11:31:48.752Z,34.20
2023-09-10T11:33:11.926Z,34.20
2023-09-10T11:34:33.654Z,34.20
2023-09-10T11:35:38.782Z,34.10
2023-09-10T11:36:41.514Z,34.20
2023-09-10T11:37:46.344Z,34.20
2023-09-10T11:38:49.244Z,34.10
2023-09-10T11:39:51.176Z,34.00
2023-09-10T11:40:55.215Z,34.00
2023-09-10T11:41:57.848Z,34.00
2023-09-10T11:43:00.994Z,34.10
2023-09-10T11:44:03.164Z,34.10
2023-09-10T11:45:06.442Z,34.10
2023-09-10T11:46:09.330Z,34.20
2023-09-10T11:47:11.441Z,34.20
2023-09-10T11:48:15.204Z,34.40
2023-09-10T11:49:17.420Z,34.60
2023-09-10T11:50:24.761Z,34.70
2023-09-10T11:51:27.215Z,34.70
2023-09-10T11:52:30.234Z,34.70
2023-09-10T11:53:34.554Z,34.80
2023-09-10T11:54:38.420Z,35.00
2023-09-10T11:55:43.755Z,35.10
2023-09-10T11:56:46.154Z,35.20
2023-09-10T11:57:49.125Z,35.20
2023-09-10T11:58:51.115Z,35.40
2023-09-10T11:59:54.163Z,35.50
2023-09-10T12:00:56.141Z,35.50
2023-09-10T12:02:00.137Z,35.50
2023-09-10T12:03:02.280Z,35.20
2023-09-10T12:04:05.463Z,35.00
2023-09-10T12:05:08.334Z,35.00
2023-09-10T12:06:13.107Z,34.90
2023-09-10T12:07:15.050Z,35.00
2023-09-10T12:08:18.026Z,35.10
2023-09-10T12:09:21.438Z,35.20
2023-09-10T12:10:24.348Z,35.10
2023-09-10T12:11:27.652Z,35.10
2023-09-10T12:12:32.487Z,35.10
2023-09-10T12:13:36.562Z,35.20
2023-09-10T12:14:39.966Z,35.30
2023-09-10T12:15:41.971Z,35.10
2023-09-10T12:16:45.052Z,35.10
2023-09-10T12:17:47.194Z,35.00
2023-09-10T12:18:50.238Z,35.00
2023-09-10T12:19:52.454Z,35.10
2023-09-10T12:20:55.757Z,35.20
2023-09-10T12:21:57.726Z,35.30
2023-09-10T12:23:01.385Z,35.40
2023-09-10T12:24:03.571Z,35.40
2023-09-10T12:25:09.040Z,35.30
2023-09-10T12:26:11.225Z,35.40
2023-09-10T12:27:14.921Z,35.40
2023-09-10T12:28:16.862Z,35.50
2023-09-10T12:29:19.780Z,35.60
2023-09-10T12:30:23.326Z,35.70
2023-09-10T12:31:29.255Z,35.90
2023-09-10T12:32:31.369Z,36.00
2023-09-10T12:33:34.316Z,36.20
2023-09-10T12:34:37.178Z,36.30
2023-09-10T12:35:42.518Z,36.40
2023-09-10T12:36:46.950Z,36.50
2023-09-10T12:37:50.681Z,36.40
2023-09-10T12:38:53.666Z,36.40
2023-09-10T12:39:57.348Z,36.30
2023-09-10T12:41:01.767Z,36.30
2023-09-10T12:42:05.663Z,36.20
2023-09-10T12:43:09.702Z,36.00
2023-09-10T12:44:12.150Z,36.00
2023-09-10T12:45:15.517Z,35.70
2023-09-10T12:46:17.505Z,35.60
2023-09-10T12:47:20.500Z,35.50
2023-09-10T12:48:23.229Z,35.50
2023-09-10T12:49:26.647Z,35.50
2023-09-10T12:50:29.132Z,35.50
2023-09-10T12:51:32.054Z,35.60
2023-09-10T12:52:34.351Z,35.60
2023-09-10T12:53:37.473Z,35.80
2023-09-10T12:54:40.384Z,35.90
2023-09-10T12:55:43.380Z,36.00
2023-09-10T12:56:49.700Z,36.00
2023-09-10T12:57:56.329Z,36.00
2023-09-10T12:58:58.619Z,36.10
2023-09-10T13:00:01.866Z,36.10
2023-09-10T13:01:04.527Z,36.10
2023-09-10T13:02:10.430Z,36.10
2023-09-10T13:03:12.579Z,36.10
2023-09-10T13:04:16.111Z,36.10
2023-09-10T13:05:18.282Z,36.10
2023-09-10T13:06:21.383Z,36.10
2023-09-10T13:07:23.351Z,36.10
2023-09-10T13:08:26.366Z,35.80
2023-09-10T13:09:28.566Z,35.70
2023-09-10T13:10:31.428Z,35.70
2023-09-10T13:11:34.470Z,35.70
2023-09-10T13:12:37.946Z,35.80
2023-09-10T13:13:41.257Z,35.80
2023-09-10T13:14:43.440Z,35.90
2023-09-10T13:15:46.813Z,36.00
2023-09-10T13:16:48.953Z,36.00
2023-09-10T13:17:52.145Z,36.10
2023-09-10T13:18:54.301Z,36.20
2023-09-10T13:19:57.452Z,36.40
2023-09-10T13:20:59.749Z,36.50
2023-09-10T13:22:03.158Z,36.60
2023-09-10T13:23:05.383Z,36.60
2023-09-10T13:24:08.728Z,36.60
2023-09-10T13:25:10.685Z,36.50
2023-09-10T13:26:14.099Z,36.40
2023-09-10T13:27:16.083Z,36.40
2023-09-10T13:28:20.484Z,36.10
2023-09-10T13:29:22.462Z,35.70
2023-09-10T13:30:25.465Z,35.50
2023-09-10T13:31:29.417Z,35.30
2023-09-10T13:32:36.313Z,35.10
2023-09-10T13:33:38.566Z,35.10
2023-09-10T13:34:42.692Z,35.00
2023-09-10T13:35:44.777Z,35.00
2023-09-10T13:36:46.712Z,35.00
2023-09-10T13:37:49.784Z,35.00
2023-09-10T13:38:51.739Z,34.70
2023-09-10T13:39:54.820Z,34.40
2023-09-10T13:40:57.812Z,34.40
2023-09-10T13:42:00.893Z,34.30
2023-09-10T13:43:03.308Z,34.30
2023-09-10T13:44:07.593Z,34.30